MMAA/ACA METAR and TAF weather

Enter ICAO airport designator
Station Type Date Time Source
MMAA METAR 2020/01/19 18:41 UTC NOAA

MMAA 191841Z 23006KT 8SM SKC 31/23 A2990 RMK HZY CU E


Station Type Date Time Source
MMAA Decoded METAR 2020/01/19 18:41 UTC NOAA

Acapulco / G. Alvarez, Mexico (MMAA) 16-46N 099-45W
Jan 19, 2020 - 01:41 PM EST / 2020.01.19 1841 UTC
Wind: from the SW (230 degrees) at 7 MPH (6 KT):0
Visibility: 8 mile(s):0
Sky conditions: clear
Temperature: 87 F (31 C)
Heat index: 93.9 F (34.4 C):1
Dew Point: 73 F (23 C)
Relative Humidity: 62%
Pressure (altimeter): 29.9 in. Hg (1012 hPa)
ob: MMAA 191841Z 23006KT 8SM SKC 31/23 A2990 RMK HZY CU E
cycle: 18

Station Type Date Time Source
MMAA TAF 2020/01/19 18:44 UTC NOAA

TAF MMAA 191637Z 1918/2024 03005KT P6SM SKC TX31/1920Z TN24/2012Z
FM192100 24010KT P6SM SCT100
FM200300 04005KT P6SM SCT100 BKN250
FM201800 24010KT P6SM SCT100

Example: see airport list